Historyczne dane pomiarowe

Dodano dane terminowe – wersja testowa.

Dane z okresu 1951-2019

Wersja bazy: 1.34 [2019-03-16, lista zmian], aktualizacja planowana na 2019-04-15

Dane meteo z obszaru Polski uzyskane na podstawie danych udostępnionych przez Instytut Meteorologii i Gospodarki Wodnej – Państwowy Instytut Badawczy.

 

Wybierz Datę:    

       

TemperaturaWilgotnośćWiatrCiśnienieOpadyŚniegCzas trwania zjawisk
 Stacja t tx tn tng RH VA  wxwx mslp ppp RRR   cm mm wxwxwxwxwxwxwx
1972-04-17 3.8 6.1 2.8--- 8.0 3.3---- 0.0------------
1972-04-18 4.6 7.6 2.4--- 8.0 2.3---- 2.9------------
1972-04-19 2.9 5.5 1.0--- 8.0 2.7---- 0.0------------
1972-04-20 2.8 6.3 0.3--- 4.0 2.7---- 0.0------------
1972-04-21 3.3 10.0 -2.8--- 5.0 1.3---- 0.0------------
1972-04-22 4.6 8.8 1.3--- 6.7 2.7---- 0.0------------
1972-04-23 5.1 11.3 -0.1--- 6.3 2.3---- 0.0------------
1972-04-24 0.5 4.9 -1.8--- 7.0 4.7---- 5.7------------
1972-04-25 -1.0 2.5 -3.7--- 5.0 2.3---- 0.2-- 6---------
1972-04-26 2.4 5.7 -1.9--- 7.3 4.7---- 0.0------------
1972-04-27 5.6 9.3 2.4--- 3.7 4.0---- 0.0------------
1972-04-28 1.8 6.8 -1.0--- 5.0 2.3---- 1.6------------
1972-04-29 4.5 10.9 -1.5--- 6.3 4.7---- 0.0------------
1972-04-30 10.1 16.9 3.2--- 3.0 5.0---- 0.0------------
1972-05-01 12.7 18.9 7.2--- 0.7 4.3---- 0.0------------
1972-05-02 14.1 19.9 9.1--- 1.3 3.0---- 0.0------------
1972-05-03 11.1 17.3 3.1--- 4.7 2.7---- 0.0------------
1972-05-04 10.2 13.3 8.2--- 7.3 3.7---- 0.0------------
1972-05-05 11.3 17.5 5.0--- 5.7 2.0---- 0.0------------
1972-05-06 9.5 13.8 5.4--- 6.3 3.7---- 0.7------------
1972-05-07 5.3 10.4 3.2--- 5.0 1.0---- 0.8------------
1972-05-08 7.6 13.5 3.5--- 2.3 4.3---- 0.0------------
1972-05-09 5.7 14.1 -0.4--- 4.0 3.7---- 0.0------------
1972-05-10 7.9 15.3 0.6--- 5.3 2.7---- 1.0------------
1972-05-11 7.0 9.0 5.8--- 8.0 3.7---- 8.7------------
1972-05-12 5.9 7.0 5.3--- 7.7 3.3---- 21.1------------
1972-05-13 6.7 7.4 5.0--- 8.0 4.0---- 9.5------------
1972-05-14 8.0 13.0 5.8--- 7.0 0.7---- 0.0------------
1972-05-15 4.9 9.3 3.4--- 7.3 2.7---- 1.1------------
1972-05-16 4.8 7.0 2.9--- 8.0 3.3---- 9.5------------
1132.4 ms

 

Źródłem pochodzenia danych jest Instytut Meteorologii i Gospodarki Wodnej – Państwowy Instytut Badawczy. Dane Instytutu Meteorologii i Gospodarki Wodnej – Państwowego Instytutu Badawczego zostały przetworzone.

Dane źródłowe można odnaleźć na stronie https://dane.imgw.pl